createdAt,value
2018-09-20T00:00:18.554Z,17.30
2018-09-20T00:05:22.522Z,17.20
2018-09-20T00:10:26.111Z,17.10
2018-09-20T00:15:29.666Z,17.20
2018-09-20T00:20:34.284Z,17.00
2018-09-20T00:25:37.784Z,17.10
2018-09-20T00:30:41.310Z,17.00
2018-09-20T00:35:44.909Z,16.80
2018-09-20T00:40:48.506Z,16.70
2018-09-20T00:45:52.052Z,16.80
2018-09-20T00:50:55.563Z,16.60
2018-09-20T00:55:59.227Z,16.50
2018-09-20T01:01:02.877Z,16.40
2018-09-20T01:06:06.476Z,16.30
2018-09-20T01:11:10.041Z,16.30
2018-09-20T01:16:14.770Z,16.20
2018-09-20T01:21:18.511Z,16.20
2018-09-20T01:26:22.147Z,16.10
2018-09-20T01:31:26.376Z,16.00
2018-09-20T01:36:29.918Z,15.90
2018-09-20T01:41:35.562Z,15.90
2018-09-20T01:46:39.176Z,15.70
2018-09-20T01:51:42.683Z,15.80
2018-09-20T01:56:47.295Z,15.70
2018-09-20T02:01:50.848Z,15.60
2018-09-20T02:06:54.479Z,16.10
2018-09-20T02:11:57.994Z,15.50
2018-09-20T02:17:01.643Z,15.40
2018-09-20T02:22:05.254Z,15.20
2018-09-20T02:27:08.798Z,15.10
2018-09-20T02:32:12.360Z,15.10
2018-09-20T02:37:16.871Z,14.90
2018-09-20T02:42:20.392Z,15.10
2018-09-20T02:47:23.987Z,14.90
2018-09-20T02:52:27.535Z,15.00
2018-09-20T02:57:31.079Z,14.90
2018-09-20T03:02:34.645Z,14.80
2018-09-20T03:07:38.407Z,14.70
2018-09-20T03:12:41.963Z,14.70
2018-09-20T03:17:45.603Z,14.60
2018-09-20T03:22:49.151Z,14.50
2018-09-20T03:27:52.685Z,14.60
2018-09-20T03:32:56.192Z,14.40
2018-09-20T03:37:59.806Z,14.40
2018-09-20T03:43:03.450Z,14.40
2018-09-20T03:48:07.082Z,14.30
2018-09-20T03:53:10.587Z,14.20
2018-09-20T03:58:14.118Z,14.20
2018-09-20T04:03:17.803Z,14.20
2018-09-20T04:08:21.606Z,14.30
2018-09-20T04:13:25.252Z,14.10
2018-09-20T04:18:28.805Z,14.40
2018-09-20T04:23:34.515Z,14.10
2018-09-20T04:28:38.109Z,14.20
2018-09-20T04:33:44.878Z,14.00
2018-09-20T04:38:48.446Z,13.90
2018-09-20T04:43:52.019Z,13.70
2018-09-20T04:48:55.807Z,13.80
2018-09-20T04:54:03.694Z,13.70
2018-09-20T04:59:07.397Z,13.80
2018-09-20T05:04:11.203Z,13.90
2018-09-20T05:09:15.574Z,13.80
2018-09-20T05:14:19.302Z,14.50
2018-09-20T05:19:22.900Z,13.50
2018-09-20T05:24:26.534Z,13.40
2018-09-20T05:29:31.181Z,13.30
2018-09-20T05:34:34.727Z,13.30
2018-09-20T05:39:38.333Z,13.50
2018-09-20T05:44:41.962Z,13.50
2018-09-20T05:49:50.642Z,13.40
2018-09-20T05:54:54.198Z,13.30
2018-09-20T05:59:57.859Z,13.20
2018-09-20T06:05:01.549Z,12.70
2018-09-20T06:10:11.746Z,13.50
2018-09-20T06:15:17.472Z,14.10
2018-09-20T06:20:21.019Z,14.40
2018-09-20T06:25:25.658Z,14.30
2018-09-20T06:30:29.270Z,14.40
2018-09-20T06:35:37.939Z,14.40
2018-09-20T06:40:41.641Z,14.40
2018-09-20T06:45:46.379Z,14.90
2018-09-20T06:50:52.038Z,14.90
2018-09-20T06:55:55.610Z,15.20
2018-09-20T07:00:59.288Z,15.20
2018-09-20T07:06:02.882Z,15.10
2018-09-20T07:11:06.691Z,15.40
2018-09-20T07:16:10.369Z,15.70
2018-09-20T07:21:14.131Z,16.10
2018-09-20T07:26:18.847Z,16.50
2018-09-20T07:31:23.483Z,16.70
2018-09-20T07:36:27.060Z,17.00
2018-09-20T07:41:30.838Z,17.20
2018-09-20T07:46:34.381Z,17.30
2018-09-20T07:51:40.166Z,17.70
2018-09-20T07:56:44.431Z,18.10
2018-09-20T08:01:49.243Z,18.70
2018-09-20T08:06:52.758Z,19.00
2018-09-20T08:11:57.653Z,20.20
2018-09-20T08:17:01.402Z,21.80
2018-09-20T08:22:05.116Z,22.50
2018-09-20T08:27:09.217Z,23.10
2018-09-20T08:32:14.946Z,23.30
2018-09-20T08:37:18.645Z,23.50
2018-09-20T08:42:22.416Z,24.20
2018-09-20T08:47:27.141Z,24.40
2018-09-20T08:52:31.309Z,25.30
2018-09-20T08:57:40.247Z,25.40
2018-09-20T09:02:44.234Z,25.60
2018-09-20T09:07:48.073Z,26.30
2018-09-20T09:12:53.020Z,27.10
2018-09-20T09:17:56.768Z,27.10
2018-09-20T09:23:01.874Z,26.90
2018-09-20T09:28:05.840Z,26.70
2018-09-20T09:33:10.621Z,27.40
2018-09-20T09:38:15.415Z,27.00
2018-09-20T09:43:19.969Z,27.30
2018-09-20T09:48:24.593Z,27.40
2018-09-20T09:53:29.355Z,27.60
2018-09-20T09:58:33.041Z,27.10
2018-09-20T10:03:37.855Z,27.90
2018-09-20T10:09:29.274Z,28.50
2018-09-20T10:14:42.450Z,28.60
2018-09-20T10:19:46.277Z,29.20
2018-09-20T10:24:49.942Z,30.00
2018-09-20T10:29:55.823Z,29.50
2018-09-20T10:35:00.767Z,31.00
2018-09-20T10:40:05.710Z,31.50
2018-09-20T10:45:09.621Z,31.30
2018-09-20T10:50:14.504Z,33.00
2018-09-20T10:55:23.884Z,31.90
2018-09-20T11:00:27.782Z,30.90
2018-09-20T11:05:34.043Z,31.10
2018-09-20T11:10:38.766Z,30.30
2018-09-20T11:15:42.632Z,27.80
2018-09-20T11:20:46.443Z,27.10
2018-09-20T11:25:50.356Z,27.20
2018-09-20T11:30:54.111Z,26.70
2018-09-20T11:35:58.064Z,26.70
2018-09-20T11:41:02.902Z,26.60
2018-09-20T11:46:09.707Z,26.70
2018-09-20T11:51:14.306Z,26.90
2018-09-20T11:56:19.098Z,26.80
2018-09-20T12:01:23.727Z,26.50
2018-09-20T12:06:27.384Z,26.30
2018-09-20T12:11:31.486Z,26.50
2018-09-20T12:16:36.346Z,26.60
2018-09-20T12:21:40.596Z,26.50
2018-09-20T12:26:44.737Z,26.60
2018-09-20T12:31:48.401Z,26.50
2018-09-20T12:36:52.207Z,26.50
2018-09-20T12:41:56.486Z,26.40
2018-09-20T12:47:01.950Z,26.30
2018-09-20T12:52:06.453Z,26.20
2018-09-20T12:57:12.078Z,25.90
2018-09-20T13:02:16.820Z,26.00
2018-09-20T13:07:26.248Z,26.20
2018-09-20T13:12:29.884Z,26.20
2018-09-20T13:17:35.788Z,26.20
2018-09-20T13:22:39.630Z,26.10
2018-09-20T13:27:43.363Z,25.90
2018-09-20T13:32:47.131Z,26.00
2018-09-20T13:37:52.034Z,25.80
2018-09-20T13:42:55.753Z,25.90
2018-09-20T13:48:00.459Z,26.10
2018-09-20T13:53:04.234Z,26.10
2018-09-20T13:58:07.923Z,25.90
2018-09-20T14:03:11.660Z,26.10
2018-09-20T14:08:16.366Z,26.40
2018-09-20T14:13:22.035Z,26.40
2018-09-20T14:18:25.718Z,26.40
2018-09-20T14:23:29.424Z,26.20
2018-09-20T14:28:34.096Z,26.20
2018-09-20T14:33:38.870Z,25.80
2018-09-20T14:38:42.497Z,26.10
2018-09-20T14:43:46.181Z,26.20
2018-09-20T14:48:56.505Z,26.30
2018-09-20T14:54:01.411Z,26.20
2018-09-20T14:59:06.617Z,26.00
2018-09-20T15:04:11.677Z,25.60
2018-09-20T15:09:15.278Z,25.90
2018-09-20T15:14:19.105Z,25.40
2018-09-20T15:19:24.847Z,25.60
2018-09-20T15:24:29.355Z,25.40
2018-09-20T15:29:35.027Z,25.10
2018-09-20T15:34:39.413Z,25.20
2018-09-20T15:39:50.633Z,25.10
2018-09-20T15:44:56.598Z,25.00
2018-09-20T15:50:00.779Z,25.20
2018-09-20T15:55:04.891Z,25.20
2018-09-20T16:00:08.819Z,25.30
2018-09-20T16:05:19.377Z,25.00
2018-09-20T16:10:23.090Z,25.00
2018-09-20T16:15:27.726Z,25.00
2018-09-20T16:20:32.828Z,24.60
2018-09-20T16:25:36.611Z,24.50
2018-09-20T16:32:57.046Z,24.40
2018-09-20T16:38:10.383Z,24.20
2018-09-20T16:43:14.013Z,24.20
2018-09-20T16:48:18.674Z,23.90
2018-09-20T16:53:22.470Z,23.60
2018-09-20T16:58:27.024Z,23.50
2018-09-20T17:03:30.644Z,23.30
2018-09-20T17:08:34.297Z,23.00
2018-09-20T17:13:38.078Z,22.70
2018-09-20T17:18:41.814Z,22.60
2018-09-20T17:23:45.518Z,22.30
2018-09-20T17:28:50.164Z,22.10
2018-09-20T17:33:55.909Z,21.90
2018-09-20T17:39:01.187Z,21.70
2018-09-20T17:44:06.438Z,21.50
2018-09-20T17:49:11.170Z,21.30
2018-09-20T17:54:15.189Z,21.20
2018-09-20T17:59:19.734Z,21.00
2018-09-20T18:04:23.432Z,20.90
2018-09-20T18:09:27.018Z,20.80
2018-09-20T18:14:31.757Z,20.60
2018-09-20T18:19:35.511Z,20.50
2018-09-20T18:24:39.336Z,20.20
2018-09-20T18:29:42.906Z,20.10
2018-09-20T18:34:47.858Z,19.80
2018-09-20T18:39:52.882Z,19.80
2018-09-20T18:44:56.531Z,19.70
2018-09-20T18:50:04.190Z,19.40
2018-09-20T18:55:08.926Z,19.30
2018-09-20T19:00:16.374Z,19.30
2018-09-20T19:05:21.976Z,19.20
2018-09-20T19:10:27.390Z,19.10
2018-09-20T19:15:34.975Z,19.30
2018-09-20T19:20:38.876Z,19.00
2018-09-20T19:25:42.856Z,18.80
2018-09-20T19:30:47.606Z,18.70
2018-09-20T19:35:51.299Z,18.70
2018-09-20T19:40:55.565Z,18.50
2018-09-20T19:45:59.487Z,18.30
2018-09-20T19:51:03.170Z,18.60
2018-09-20T19:56:07.089Z,18.50
2018-09-20T20:01:11.681Z,18.20
2018-09-20T20:06:18.314Z,18.40
2018-09-20T20:11:23.052Z,18.20
2018-09-20T20:16:26.735Z,18.00
2018-09-20T20:21:30.358Z,17.80
2018-09-20T20:26:35.279Z,17.80
2018-09-20T20:31:39.863Z,17.90
2018-09-20T20:36:44.595Z,17.60
2018-09-20T20:41:48.331Z,17.50
2018-09-20T20:46:52.551Z,17.30
2018-09-20T20:51:56.183Z,17.40
2018-09-20T20:57:00.091Z,17.50
2018-09-20T21:02:03.752Z,17.50
2018-09-20T21:07:07.523Z,17.30
2018-09-20T21:12:11.395Z,17.30
2018-09-20T21:17:17.230Z,17.10
2018-09-20T21:22:21.029Z,17.10
2018-09-20T21:27:25.095Z,17.30
2018-09-20T21:32:28.885Z,17.10
2018-09-20T21:37:32.607Z,17.10
2018-09-20T21:42:36.272Z,17.20
2018-09-20T21:47:51.742Z,16.90
2018-09-20T21:52:55.521Z,16.70
2018-09-20T21:58:00.233Z,16.80
2018-09-20T22:03:05.107Z,16.80
2018-09-20T22:08:08.957Z,16.80
2018-09-20T22:13:12.751Z,16.70
2018-09-20T22:18:17.410Z,16.70
2018-09-20T22:23:23.242Z,16.90
2018-09-20T22:28:29.181Z,16.60
2018-09-20T22:33:32.840Z,16.70
2018-09-20T22:38:37.090Z,16.60
2018-09-20T22:43:40.845Z,16.50
2018-09-20T22:48:44.596Z,16.40
2018-09-20T22:53:50.000Z,16.40
2018-09-20T22:58:55.033Z,16.40
2018-09-20T23:03:59.214Z,16.30
2018-09-20T23:09:02.934Z,16.30
2018-09-20T23:14:06.605Z,16.30
2018-09-20T23:19:10.304Z,16.20
2018-09-20T23:24:13.903Z,16.10
2018-09-20T23:29:17.651Z,16.00
2018-09-20T23:34:21.314Z,16.00
2018-09-20T23:39:25.521Z,16.00
2018-09-20T23:44:30.179Z,16.10
2018-09-20T23:49:34.226Z,16.10
2018-09-20T23:54:38.915Z,16.10
2018-09-20T23:59:43.586Z,16.10
